Lane, SC (29564)

11:44 PM EST on March 05, 2015 (GMT -0500)
Santee Circle | Change Station
CLOSE
Current Station
Personal Weather Station
Location: Moncks Corner, SC
Elevation: 79 ft
Nearby Weather Stations
Active Advisory: Flood Warning

Elev 79 ft 33.23 °N, 79.97 °W | Updated 13 minutes ago

Rain
Rain
41.7 °F
Feels Like 37 °F
N
7.0
Wind Variable Wind from North
Gusts 18.0 mph

Today
High -- | Low -- °F
--% Chance of Precip.
Yesterday
High -- | Low -- °F
Precip. -- in
6:42 AM 6:19 PM
Full, 100% visible
Pressure 30.28 in
Visibility 10.0 miles
Clouds Mostly Cloudy 1000 ft
Overcast 1500 ft
Windchill 37 °F
Dew Point 40 °F
Humidity 93%
Rainfall in
Snow Depth Not available.
UV 0 out of 12
Pollen 9.40 out of 12
Air Quality Not available.
Flu Activity Not available.
METAR KCKI 060435Z AUTO 35014G19KT 10SM BKN010 OVC015 05/05 A3028 RMK AO2

More Conditions Fewer Conditions

Pressure 30.28 in
Visibility 10.0 miles
Clouds Mostly Cloudy 1000 ft
Overcast 1500 ft
Windchill 37 °F
Dew Point 40 °F
Humidity 93%
Rainfall in
Snow Depth Not available.
UV 0 out of 12
Pollen 9.40 out of 12
Air Quality Not available.
Flu Activity Not available.
METAR KCKI 060435Z AUTO 35014G19KT 10SM BKN010 OVC015 05/05 A3028 RMK AO2

More Conditions Fewer Conditions

10-Day Weather Forecast

Almanac

Astronomy

Mar. 05, 2015 Rise Set
Actual Time
Civil Twilight
Nautical Twilight
Astronomical Twilight
Moon
Length of Visible Light
Length of Day
Tomorrow will be .
, % of the Moon is Illuminated

Today's Extremes

State Highs State Lows

Community

WunderPhotos

Upload Photos

1,803,178 photos uploaded!

WunderBlogs® & News

Nearby

Air Quality

  Air Quality AQ Index Pollutant
Not available.

Snow Depth

Station Depth Elevation

Earthquake Activity

City Distance Mag. Time & Date
Minimum magnitude displayed is 2.5.

Coastal Water Temperatures

Place Temperature

Nearby Weather Stations

Flood Warning
Statement as of 9:40 PM EST on March 05, 2015

The Flood Warning continues for
the Santee river near Jamestown.
* At 6 PM Thursday the stage was 10.6 feet.
* Flood stage is 10.0 feet.
* Minor flooding is occurring.
* Forecast, the river will rise to near 11.0 feet by early Saturday
afternoon then begin a slow fall.
* At 12.0 feet, several dirt logging roads become impassable.


Lat... Lon 3347 8002 3354 7998 3335 7969 3327 7946
          3320 7951 3329 7976